sensor_id;sensor_type;location;lat;lon;timestamp;pressure;altitude;pressure_sealevel;temperature;humidity
60820;BME280;46641;48.904;9.126;2023-02-14T00:01:20;100454.66;;;8.94;59.67
60820;BME280;46641;48.904;9.126;2023-02-14T00:06:12;100451.13;;;8.95;59.45
60820;BME280;46641;48.904;9.126;2023-02-14T00:11:03;100447.00;;;8.91;59.62
60820;BME280;46641;48.904;9.126;2023-02-14T00:15:54;100447.94;;;8.89;59.49
60820;BME280;46641;48.904;9.126;2023-02-14T00:20:44;100454.25;;;8.85;59.51
60820;BME280;46641;48.904;9.126;2023-02-14T00:25:35;100445.75;;;8.82;60.02
60820;BME280;46641;48.904;9.126;2023-02-14T00:30:25;100457.22;;;8.79;60.01
60820;BME280;46641;48.904;9.126;2023-02-14T00:35:15;100452.16;;;8.76;59.37
60820;BME280;46641;48.904;9.126;2023-02-14T00:40:06;100441.16;;;8.71;60.13
60820;BME280;46641;48.904;9.126;2023-02-14T00:44:56;100443.09;;;8.68;60.28
60820;BME280;46641;48.904;9.126;2023-02-14T00:49:47;100441.59;;;8.63;60.04
60820;BME280;46641;48.904;9.126;2023-02-14T00:54:37;100448.59;;;8.63;60.18
60820;BME280;46641;48.904;9.126;2023-02-14T00:59:28;100449.69;;;8.59;60.15
60820;BME280;46641;48.904;9.126;2023-02-14T01:04:19;100449.03;;;8.55;59.98
60820;BME280;46641;48.904;9.126;2023-02-14T01:09:09;100453.59;;;8.52;60.49
60820;BME280;46641;48.904;9.126;2023-02-14T01:13:59;100443.22;;;8.50;60.36
60820;BME280;46641;48.904;9.126;2023-02-14T01:18:50;100455.50;;;8.48;60.18
60820;BME280;46641;48.904;9.126;2023-02-14T01:23:41;100447.75;;;8.47;60.21
60820;BME280;46641;48.904;9.126;2023-02-14T01:28:32;100442.81;;;8.42;60.27
60820;BME280;46641;48.904;9.126;2023-02-14T01:33:22;100441.13;;;8.41;60.44
60820;BME280;46641;48.904;9.126;2023-02-14T01:38:12;100439.53;;;8.38;60.68
60820;BME280;46641;48.904;9.126;2023-02-14T01:43:03;100437.91;;;8.36;60.76
60820;BME280;46641;48.904;9.126;2023-02-14T01:47:55;100435.47;;;8.33;60.63
60820;BME280;46641;48.904;9.126;2023-02-14T01:52:49;100439.09;;;8.30;60.88
60820;BME280;46641;48.904;9.126;2023-02-14T01:57:46;100440.75;;;8.31;60.95
60820;BME280;46641;48.904;9.126;2023-02-14T02:02:39;100440.03;;;8.29;61.15
60820;BME280;46641;48.904;9.126;2023-02-14T02:07:29;100439.25;;;8.27;60.57
60820;BME280;46641;48.904;9.126;2023-02-14T02:12:19;100443.81;;;8.24;60.99
60820;BME280;46641;48.904;9.126;2023-02-14T02:17:19;100443.88;;;8.22;60.92
60820;BME280;46641;48.904;9.126;2023-02-14T02:22:23;100443.97;;;8.20;60.99
60820;BME280;46641;48.904;9.126;2023-02-14T02:28:00;100441.63;;;8.16;60.67
60820;BME280;46641;48.904;9.126;2023-02-14T02:33:06;100446.91;;;8.14;60.54
60820;BME280;46641;48.904;9.126;2023-02-14T02:38:15;100438.41;;;8.11;60.95
60820;BME280;46641;48.904;9.126;2023-02-14T02:43:29;100430.69;;;8.09;61.48
60820;BME280;46641;48.904;9.126;2023-02-14T02:48:31;100430.09;;;8.04;61.11
60820;BME280;46641;48.904;9.126;2023-02-14T02:58:58;100432.97;;;8.00;60.56
60820;BME280;46641;48.904;9.126;2023-02-14T03:03:57;100430.41;;;7.98;61.38
60820;BME280;46641;48.904;9.126;2023-02-14T03:14:18;100439.41;;;7.92;61.58
60820;BME280;46641;48.904;9.126;2023-02-14T03:19:16;100440.44;;;7.90;61.21
60820;BME280;46641;48.904;9.126;2023-02-14T03:24:18;100443.09;;;7.88;61.56
60820;BME280;46641;48.904;9.126;2023-02-14T03:29:33;100448.50;;;7.85;60.80
60820;BME280;46641;48.904;9.126;2023-02-14T03:44:11;100440.16;;;7.79;61.65
60820;BME280;46641;48.904;9.126;2023-02-14T03:49:09;100438.47;;;7.78;61.31
60820;BME280;46641;48.904;9.126;2023-02-14T03:54:06;100432.50;;;7.76;61.84
60820;BME280;46641;48.904;9.126;2023-02-14T03:59:04;100424.78;;;7.74;61.45
60820;BME280;46641;48.904;9.126;2023-02-14T04:03:56;100422.22;;;7.72;61.79
60820;BME280;46641;48.904;9.126;2023-02-14T04:08:48;100421.50;;;7.70;62.08
60820;BME280;46641;48.904;9.126;2023-02-14T04:13:38;100425.84;;;7.70;62.01
60820;BME280;46641;48.904;9.126;2023-02-14T04:18:28;100427.72;;;7.68;61.74
60820;BME280;46641;48.904;9.126;2023-02-14T04:23:37;100437.34;;;7.66;61.80
60820;BME280;46641;48.904;9.126;2023-02-14T04:28:28;100427.09;;;7.63;62.20
60820;BME280;46641;48.904;9.126;2023-02-14T04:33:18;100428.09;;;7.60;62.16
60820;BME280;46641;48.904;9.126;2023-02-14T04:38:08;100423.81;;;7.59;62.14
60820;BME280;46641;48.904;9.126;2023-02-14T04:42:59;100419.59;;;7.57;62.26
60820;BME280;46641;48.904;9.126;2023-02-14T04:47:50;100421.38;;;7.56;61.85
60820;BME280;46641;48.904;9.126;2023-02-14T04:52:40;100429.28;;;7.55;61.80
60820;BME280;46641;48.904;9.126;2023-02-14T04:57:31;100430.28;;;7.52;62.30
60820;BME280;46641;48.904;9.126;2023-02-14T05:02:21;100432.09;;;7.50;62.26
60820;BME280;46641;48.904;9.126;2023-02-14T05:07:12;100419.19;;;7.48;62.34
60820;BME280;46641;48.904;9.126;2023-02-14T05:12:02;100415.81;;;7.46;62.85
60820;BME280;46641;48.904;9.126;2023-02-14T05:16:53;100427.06;;;7.47;62.20
60820;BME280;46641;48.904;9.126;2023-02-14T05:21:43;100419.34;;;7.45;62.13
60820;BME280;46641;48.904;9.126;2023-02-14T05:26:33;100417.66;;;7.44;62.80
60820;BME280;46641;48.904;9.126;2023-02-14T05:31:24;100422.00;;;7.44;62.86
60820;BME280;46641;48.904;9.126;2023-02-14T05:36:14;100410.91;;;7.40;62.80
60820;BME280;46641;48.904;9.126;2023-02-14T05:41:05;100425.69;;;7.40;62.73
60820;BME280;46641;48.904;9.126;2023-02-14T05:45:56;100426.53;;;7.40;62.74
60820;BME280;46641;48.904;9.126;2023-02-14T05:50:46;100428.41;;;7.38;62.65
60820;BME280;46641;48.904;9.126;2023-02-14T05:55:36;100438.81;;;7.38;62.77
60820;BME280;46641;48.904;9.126;2023-02-14T06:00:27;100438.03;;;7.36;62.97
60820;BME280;46641;48.904;9.126;2023-02-14T06:05:18;100441.66;;;7.34;62.74
60820;BME280;46641;48.904;9.126;2023-02-14T06:10:09;100451.22;;;7.33;62.46
60820;BME280;46641;48.904;9.126;2023-02-14T06:14:59;100442.63;;;7.31;62.86
60820;BME280;46641;48.904;9.126;2023-02-14T06:19:49;100447.84;;;7.31;62.90
60820;BME280;46641;48.904;9.126;2023-02-14T06:24:40;100455.75;;;7.30;63.06
60820;BME280;46641;48.904;9.126;2023-02-14T06:29:30;100445.44;;;7.28;63.08
60820;BME280;46641;48.904;9.126;2023-02-14T06:34:20;100458.25;;;7.31;62.54
60820;BME280;46641;48.904;9.126;2023-02-14T06:39:10;100451.38;;;7.30;62.51
60820;BME280;46641;48.904;9.126;2023-02-14T06:44:01;100453.16;;;7.30;62.43
60820;BME280;46641;48.904;9.126;2023-02-14T06:48:51;100453.25;;;7.28;62.46
60820;BME280;46641;48.904;9.126;2023-02-14T06:53:41;100452.38;;;7.28;62.45
60820;BME280;46641;48.904;9.126;2023-02-14T06:58:32;100449.88;;;7.26;62.72
60820;BME280;46641;48.904;9.126;2023-02-14T07:03:23;100456.91;;;7.24;62.56
60820;BME280;46641;48.904;9.126;2023-02-14T07:08:13;100448.34;;;7.22;62.61
60820;BME280;46641;48.904;9.126;2023-02-14T07:13:04;100443.13;;;7.22;62.89
60820;BME280;46641;48.904;9.126;2023-02-14T07:17:54;100448.34;;;7.22;63.41
60820;BME280;46641;48.904;9.126;2023-02-14T07:22:45;100446.63;;;7.21;62.85
60820;BME280;46641;48.904;9.126;2023-02-14T07:27:35;100436.38;;;7.18;63.01
60820;BME280;46641;48.904;9.126;2023-02-14T07:32:26;100443.28;;;7.19;63.18
60820;BME280;46641;48.904;9.126;2023-02-14T07:37:17;100442.59;;;7.15;63.11
60820;BME280;46641;48.904;9.126;2023-02-14T07:42:07;100446.03;;;7.16;62.72
60820;BME280;46641;48.904;9.126;2023-02-14T07:46:57;100451.31;;;7.14;62.92
60820;BME280;46641;48.904;9.126;2023-02-14T07:51:48;100452.25;;;7.13;63.17
60820;BME280;46641;48.904;9.126;2023-02-14T07:56:38;100454.06;;;7.11;63.07
60820;BME280;46641;48.904;9.126;2023-02-14T08:01:28;100446.66;;;7.03;59.56
60820;BME280;46641;48.904;9.126;2023-02-14T08:06:19;100444.38;;;6.80;58.99
60820;BME280;46641;48.904;9.126;2023-02-14T08:11:09;100437.53;;;6.60;60.06
60820;BME280;46641;48.904;9.126;2023-02-14T08:16:00;100440.56;;;5.96;61.55
60820;BME280;46641;48.904;9.126;2023-02-14T08:21:02;100436.66;;;6.42;60.68
60820;BME280;46641;48.904;9.126;2023-02-14T08:25:53;100435.63;;;6.64;60.41
60820;BME280;46641;48.904;9.126;2023-02-14T08:30:43;100435.03;;;6.76;60.34
60820;BME280;46641;48.904;9.126;2023-02-14T08:35:34;100435.63;;;6.81;60.03
60820;BME280;46641;48.904;9.126;2023-02-14T08:40:25;100433.72;;;6.85;60.29
60820;BME280;46641;48.904;9.126;2023-02-14T08:45:16;100437.09;;;6.87;60.08
60820;BME280;46641;48.904;9.126;2023-02-14T08:50:09;100433.66;;;6.86;60.76
60820;BME280;46641;48.904;9.126;2023-02-14T08:55:00;100420.66;;;6.86;60.52
60820;BME280;46641;48.904;9.126;2023-02-14T08:59:52;100427.53;;;6.87;61.14
60820;BME280;46641;48.904;9.126;2023-02-14T09:04:42;100431.75;;;6.90;60.70
60820;BME280;46641;48.904;9.126;2023-02-14T09:09:33;100423.00;;;6.91;61.06
60820;BME280;46641;48.904;9.126;2023-02-14T09:14:23;100417.66;;;6.94;60.87
60820;BME280;46641;48.904;9.126;2023-02-14T09:19:14;100413.13;;;6.97;61.47
60820;BME280;46641;48.904;9.126;2023-02-14T09:24:04;100418.03;;;7.03;60.93
60820;BME280;46641;48.904;9.126;2023-02-14T09:28:55;100415.16;;;7.08;60.91
60820;BME280;46641;48.904;9.126;2023-02-14T09:33:47;100418.50;;;7.12;61.41
60820;BME280;46641;48.904;9.126;2023-02-14T09:38:38;100410.19;;;7.21;60.91
60820;BME280;46641;48.904;9.126;2023-02-14T09:43:38;100405.50;;;7.28;61.41
60820;BME280;46641;48.904;9.126;2023-02-14T09:48:37;100393.75;;;7.36;61.73
60820;BME280;46641;48.904;9.126;2023-02-14T09:53:43;100388.91;;;7.46;61.67
60820;BME280;46641;48.904;9.126;2023-02-14T10:08:57;100368.28;;;7.90;60.88
60820;BME280;46641;48.904;9.126;2023-02-14T10:14:05;100370.63;;;8.11;60.63
60820;BME280;46641;48.904;9.126;2023-02-14T10:24:17;100363.69;;;8.41;60.09
60820;BME280;46641;48.904;9.126;2023-02-14T10:29:13;100364.59;;;8.56;60.27
60820;BME280;46641;48.904;9.126;2023-02-14T10:34:39;100353.63;;;8.65;60.37
60820;BME280;46641;48.904;9.126;2023-02-14T10:39:35;100356.69;;;8.72;61.27
60820;BME280;46641;48.904;9.126;2023-02-14T10:44:46;100346.56;;;8.82;60.33
60820;BME280;46641;48.904;9.126;2023-02-14T10:49:44;100346.50;;;8.98;61.16
60820;BME280;46641;48.904;9.126;2023-02-14T10:54:38;100337.16;;;9.08;61.36
60820;BME280;46641;48.904;9.126;2023-02-14T10:59:52;100337.44;;;9.18;61.32
60820;BME280;46641;48.904;9.126;2023-02-14T11:04:44;100332.19;;;9.32;61.60
60820;BME280;46641;48.904;9.126;2023-02-14T11:09:36;100322.78;;;9.44;61.84
60820;BME280;46641;48.904;9.126;2023-02-14T11:14:29;100319.69;;;9.51;61.50
60820;BME280;46641;48.904;9.126;2023-02-14T11:29:25;100302.00;;;9.69;62.31
60820;BME280;46641;48.904;9.126;2023-02-14T11:34:37;100296.00;;;9.81;61.97
60820;BME280;46641;48.904;9.126;2023-02-14T11:39:33;100287.16;;;9.97;62.33
60820;BME280;46641;48.904;9.126;2023-02-14T11:44:26;100285.09;;;10.02;62.68
60820;BME280;46641;48.904;9.126;2023-02-14T11:49:32;100280.59;;;10.17;62.25
60820;BME280;46641;48.904;9.126;2023-02-14T11:54:33;100277.00;;;10.32;61.89
60820;BME280;46641;48.904;9.126;2023-02-14T11:59:34;100271.72;;;10.46;61.86
60820;BME280;46641;48.904;9.126;2023-02-14T12:04:32;100256.63;;;10.63;61.74
60820;BME280;46641;48.904;9.126;2023-02-14T12:14:21;100244.66;;;10.84;61.59
60820;BME280;46641;48.904;9.126;2023-02-14T12:19:17;100246.53;;;10.95;61.86
60820;BME280;46641;48.904;9.126;2023-02-14T12:24:22;100236.47;;;11.02;61.30
60820;BME280;46641;48.904;9.126;2023-02-14T12:29:23;100235.19;;;11.07;61.57
60820;BME280;46641;48.904;9.126;2023-02-14T12:34:17;100222.41;;;11.15;62.29
60820;BME280;46641;48.904;9.126;2023-02-14T12:49:44;100215.63;;;11.37;61.35
60820;BME280;46641;48.904;9.126;2023-02-14T12:59:57;100200.91;;;11.47;62.15
60820;BME280;46641;48.904;9.126;2023-02-14T13:04:56;100195.81;;;11.57;62.07
60820;BME280;46641;48.904;9.126;2023-02-14T13:09:56;100190.03;;;11.64;62.31
60820;BME280;46641;48.904;9.126;2023-02-14T13:20:35;100173.72;;;11.72;62.04
60820;BME280;46641;48.904;9.126;2023-02-14T13:25:31;100168.78;;;11.08;61.32
60820;BME280;46641;48.904;9.126;2023-02-14T13:30:34;100171.63;;;11.29;58.97
60820;BME280;46641;48.904;9.126;2023-02-14T13:35:28;100163.25;;;11.24;57.66
60820;BME280;46641;48.904;9.126;2023-02-14T13:40:24;100162.19;;;11.27;58.04
60820;BME280;46641;48.904;9.126;2023-02-14T13:50:27;100156.94;;;11.27;61.79
60820;BME280;46641;48.904;9.126;2023-02-14T13:55:24;100155.19;;;11.62;59.95
60820;BME280;46641;48.904;9.126;2023-02-14T14:10:45;100139.63;;;12.07;59.08
60820;BME280;46641;48.904;9.126;2023-02-14T14:15:36;100137.25;;;12.15;59.37
60820;BME280;46641;48.904;9.126;2023-02-14T14:25:38;100137.97;;;12.18;59.74
60820;BME280;46641;48.904;9.126;2023-02-14T14:30:30;100128.19;;;12.20;59.90
60820;BME280;46641;48.904;9.126;2023-02-14T14:35:24;100121.97;;;12.21;59.89
60820;BME280;46641;48.904;9.126;2023-02-14T14:40:29;100130.59;;;12.23;59.16
60820;BME280;46641;48.904;9.126;2023-02-14T14:45:22;100126.63;;;12.17;59.95
60820;BME280;46641;48.904;9.126;2023-02-14T14:55:19;100120.31;;;12.20;59.41
60820;BME280;46641;48.904;9.126;2023-02-14T15:00:20;100113.13;;;12.22;59.37
60820;BME280;46641;48.904;9.126;2023-02-14T15:05:48;100124.38;;;12.24;59.02
60820;BME280;46641;48.904;9.126;2023-02-14T15:10:39;100123.66;;;12.22;60.18
60820;BME280;46641;48.904;9.126;2023-02-14T15:15:29;100114.25;;;12.19;60.36
60820;BME280;46641;48.904;9.126;2023-02-14T15:20:21;100120.41;;;12.18;60.17
60820;BME280;46641;48.904;9.126;2023-02-14T15:35:26;100116.97;;;12.18;59.51
60820;BME280;46641;48.904;9.126;2023-02-14T15:40:22;100109.81;;;12.20;58.89
60820;BME280;46641;48.904;9.126;2023-02-14T15:45:21;100111.72;;;12.18;58.79
60820;BME280;46641;48.904;9.126;2023-02-14T15:50:22;100110.16;;;12.15;58.82
60820;BME280;46641;48.904;9.126;2023-02-14T15:55:18;100117.44;;;12.11;59.37
60820;BME280;46641;48.904;9.126;2023-02-14T16:00:16;100117.56;;;12.10;59.23
60820;BME280;46641;48.904;9.126;2023-02-14T16:05:16;100108.00;;;12.09;59.04
60820;BME280;46641;48.904;9.126;2023-02-14T16:10:23;100111.59;;;12.08;59.31
60820;BME280;46641;48.904;9.126;2023-02-14T16:20:26;100111.59;;;12.08;58.78
60820;BME280;46641;48.904;9.126;2023-02-14T16:25:17;100116.97;;;12.06;59.57
60820;BME280;46641;48.904;9.126;2023-02-14T16:30:16;100115.28;;;12.05;58.92
60820;BME280;46641;48.904;9.126;2023-02-14T16:35:15;100111.00;;;12.04;59.08
60820;BME280;46641;48.904;9.126;2023-02-14T16:40:12;100112.66;;;12.05;59.03
60820;BME280;46641;48.904;9.126;2023-02-14T16:45:04;100116.38;;;12.03;59.10
60820;BME280;46641;48.904;9.126;2023-02-14T16:49:54;100118.88;;;12.04;59.28
60820;BME280;46641;48.904;9.126;2023-02-14T16:54:45;100129.53;;;11.19;58.55
60820;BME280;46641;48.904;9.126;2023-02-14T16:59:35;100113.06;;;11.17;57.74
60820;BME280;46641;48.904;9.126;2023-02-14T17:04:25;100122.22;;;11.12;57.59
60820;BME280;46641;48.904;9.126;2023-02-14T17:09:19;100127.00;;;10.94;57.93
60820;BME280;46641;48.904;9.126;2023-02-14T17:14:16;100123.66;;;11.40;57.89
60820;BME280;46641;48.904;9.126;2023-02-14T17:19:08;100126.81;;;11.56;57.72
60820;BME280;46641;48.904;9.126;2023-02-14T17:23:59;100125.66;;;11.60;57.54
60820;BME280;46641;48.904;9.126;2023-02-14T17:28:49;100130.91;;;11.60;57.71
60820;BME280;46641;48.904;9.126;2023-02-14T17:33:40;100133.00;;;11.55;57.68
60820;BME280;46641;48.904;9.126;2023-02-14T17:38:30;100127.38;;;11.49;58.18
60820;BME280;46641;48.904;9.126;2023-02-14T17:43:20;100132.25;;;11.42;58.08
60820;BME280;46641;48.904;9.126;2023-02-14T17:48:11;100134.34;;;11.37;58.05
60820;BME280;46641;48.904;9.126;2023-02-14T17:53:01;100137.31;;;11.32;58.44
60820;BME280;46641;48.904;9.126;2023-02-14T17:57:51;100129.06;;;11.26;58.40
60820;BME280;46641;48.904;9.126;2023-02-14T18:02:41;100143.34;;;11.21;58.91
60820;BME280;46641;48.904;9.126;2023-02-14T18:07:32;100136.03;;;11.14;58.77
60820;BME280;46641;48.904;9.126;2023-02-14T18:12:23;100130.19;;;11.10;58.91
60820;BME280;46641;48.904;9.126;2023-02-14T18:17:13;100129.69;;;11.05;59.02
60820;BME280;46641;48.904;9.126;2023-02-14T18:22:03;100135.84;;;11.04;58.97
60820;BME280;46641;48.904;9.126;2023-02-14T18:26:54;100132.75;;;10.99;59.19
60820;BME280;46641;48.904;9.126;2023-02-14T18:31:44;100131.06;;;10.98;59.13
60820;BME280;46641;48.904;9.126;2023-02-14T18:36:36;100133.06;;;10.94;59.11
60820;BME280;46641;48.904;9.126;2023-02-14T18:41:27;100123.75;;;10.90;59.04
60820;BME280;46641;48.904;9.126;2023-02-14T18:46:21;100122.31;;;10.86;58.93
60820;BME280;46641;48.904;9.126;2023-02-14T18:51:21;100117.38;;;10.82;58.73
60820;BME280;46641;48.904;9.126;2023-02-14T18:56:14;100103.88;;;10.75;59.12
60820;BME280;46641;48.904;9.126;2023-02-14T19:01:12;100111.03;;;10.73;59.10
60820;BME280;46641;48.904;9.126;2023-02-14T19:06:03;100101.09;;;10.65;59.38
60820;BME280;46641;48.904;9.126;2023-02-14T19:10:54;100097.84;;;10.62;59.37
60820;BME280;46641;48.904;9.126;2023-02-14T19:15:44;100095.44;;;10.59;59.53
60820;BME280;46641;48.904;9.126;2023-02-14T19:20:34;100087.94;;;10.54;59.44
60820;BME280;46641;48.904;9.126;2023-02-14T19:25:25;100088.16;;;10.51;59.61
60820;BME280;46641;48.904;9.126;2023-02-14T19:30:17;100099.78;;;10.47;59.69
60820;BME280;46641;48.904;9.126;2023-02-14T19:35:07;100102.63;;;10.44;59.63
60820;BME280;46641;48.904;9.126;2023-02-14T19:39:58;100101.13;;;10.40;59.64
60820;BME280;46641;48.904;9.126;2023-02-14T19:44:48;100089.94;;;10.38;59.57
60820;BME280;46641;48.904;9.126;2023-02-14T19:49:38;100089.22;;;10.36;59.50
60820;BME280;46641;48.904;9.126;2023-02-14T19:54:29;100062.53;;;10.31;59.66
60820;BME280;46641;48.904;9.126;2023-02-14T19:59:19;100063.69;;;10.26;59.74
60820;BME280;46641;48.904;9.126;2023-02-14T20:04:17;100071.00;;;10.21;59.68
60820;BME280;46641;48.904;9.126;2023-02-14T20:09:08;100074.44;;;10.22;59.57
60820;BME280;46641;48.904;9.126;2023-02-14T20:13:59;100072.25;;;10.16;59.44
60820;BME280;46641;48.904;9.126;2023-02-14T20:18:50;100066.41;;;10.12;59.76
60820;BME280;46641;48.904;9.126;2023-02-14T20:23:40;100060.63;;;10.07;59.90
60820;BME280;46641;48.904;9.126;2023-02-14T20:28:31;100065.97;;;10.05;59.96
60820;BME280;46641;48.904;9.126;2023-02-14T20:33:21;100051.44;;;10.01;59.83
60820;BME280;46641;48.904;9.126;2023-02-14T20:38:11;100045.59;;;9.98;59.98
60820;BME280;46641;48.904;9.126;2023-02-14T20:43:01;100046.72;;;9.94;59.82
60820;BME280;46641;48.904;9.126;2023-02-14T20:47:52;100037.44;;;9.90;60.00
60820;BME280;46641;48.904;9.126;2023-02-14T20:52:42;100036.81;;;9.86;59.92
60820;BME280;46641;48.904;9.126;2023-02-14T20:57:32;100029.16;;;9.83;59.90
60820;BME280;46641;48.904;9.126;2023-02-14T21:02:22;100026.75;;;9.80;59.61
60820;BME280;46641;48.904;9.126;2023-02-14T21:07:13;100020.91;;;9.76;60.09
60820;BME280;46641;48.904;9.126;2023-02-14T21:12:04;100019.25;;;9.75;59.84
60820;BME280;46641;48.904;9.126;2023-02-14T21:16:55;100012.53;;;9.71;60.07
60820;BME280;46641;48.904;9.126;2023-02-14T21:21:46;100011.06;;;9.67;59.77
60820;BME280;46641;48.904;9.126;2023-02-14T21:26:37;100012.97;;;9.65;59.96
60820;BME280;46641;48.904;9.126;2023-02-14T21:31:27;100018.41;;;9.62;59.83
60820;BME280;46641;48.904;9.126;2023-02-14T21:36:19;100008.16;;;9.59;59.80
60820;BME280;46641;48.904;9.126;2023-02-14T21:41:13;100010.97;;;9.56;59.95
60820;BME280;46641;48.904;9.126;2023-02-14T21:46:09;100014.72;;;9.52;60.05
60820;BME280;46641;48.904;9.126;2023-02-14T21:51:02;100007.94;;;9.49;59.97
60820;BME280;46641;48.904;9.126;2023-02-14T21:55:53;99996.97;;;9.44;60.32
60820;BME280;46641;48.904;9.126;2023-02-14T22:00:44;100005.84;;;9.42;60.47
60820;BME280;46641;48.904;9.126;2023-02-14T22:05:35;99999.16;;;9.38;59.95
60820;BME280;46641;48.904;9.126;2023-02-14T22:10:25;100001.00;;;9.35;60.20
60820;BME280;46641;48.904;9.126;2023-02-14T22:15:16;99989.09;;;9.31;60.29
60820;BME280;46641;48.904;9.126;2023-02-14T22:20:06;99987.66;;;9.27;60.00
60820;BME280;46641;48.904;9.126;2023-02-14T22:24:59;99985.22;;;9.24;60.42
60820;BME280;46641;48.904;9.126;2023-02-14T22:29:49;99977.47;;;9.23;60.22
60820;BME280;46641;48.904;9.126;2023-02-14T22:34:39;99974.25;;;9.19;60.19
60820;BME280;46641;48.904;9.126;2023-02-14T22:39:30;99977.25;;;9.13;60.35
60820;BME280;46641;48.904;9.126;2023-02-14T22:44:20;99979.25;;;9.09;60.46
60820;BME280;46641;48.904;9.126;2023-02-14T22:49:10;99972.56;;;9.05;60.52
60820;BME280;46641;48.904;9.126;2023-02-14T22:54:07;99975.28;;;9.04;59.91
60820;BME280;46641;48.904;9.126;2023-02-14T22:58:59;99974.66;;;9.00;60.34
60820;BME280;46641;48.904;9.126;2023-02-14T23:03:55;99978.38;;;8.96;60.54
60820;BME280;46641;48.904;9.126;2023-02-14T23:08:46;99974.19;;;8.94;60.25
60820;BME280;46641;48.904;9.126;2023-02-14T23:13:36;99978.69;;;8.92;61.02
60820;BME280;46641;48.904;9.126;2023-02-14T23:18:45;99964.38;;;8.84;60.92
60820;BME280;46641;48.904;9.126;2023-02-14T23:23:54;99969.78;;;8.81;60.67
60820;BME280;46641;48.904;9.126;2023-02-14T23:28:44;99971.66;;;8.79;60.55
60820;BME280;46641;48.904;9.126;2023-02-14T23:33:35;99969.34;;;8.75;60.88
60820;BME280;46641;48.904;9.126;2023-02-14T23:38:25;99969.56;;;8.72;60.66
60820;BME280;46641;48.904;9.126;2023-02-14T23:43:15;99961.81;;;8.70;60.71
60820;BME280;46641;48.904;9.126;2023-02-14T23:48:05;99961.94;;;8.69;61.15
60820;BME280;46641;48.904;9.126;2023-02-14T23:52:56;99962.19;;;8.64;60.76
60820;BME280;46641;48.904;9.126;2023-02-14T23:57:46;99970.16;;;8.62;60.77
